Time;durP1;ratioP1;P1;durP2;ratioP2;P2;SDS_P1;SDS_P2;PMS_P1;PMS_P2;Temp;Humidity;BMP_temperature;BMP_pressure;BME280_temperature;BME280_humidity;BME280_pressure;Samples;Min_cycle;Max_cycle;Signal;HPM_P1;HPM_P2
2022/02/15 00:00:52;;;;;;;;;;;;;;;17.97;51.77;99837.00;2059602;28;19984;-47
2022/02/15 00:01:53;;;;;;;;;;;;;;;17.96;51.69;99836.13;2059339;28;20018;-49
2022/02/15 00:02:54;;;;;;;;;;;;;;;17.96;51.98;99838.88;2056143;28;19914;-51
2022/02/15 00:03:54;;;;;;;;;;;;;;;17.94;52.02;99832.69;2058742;28;19925;-47
2022/02/15 00:04:54;;;;;;;;;;;;;;;17.94;51.83;99835.41;2047640;28;20032;-48
2022/02/15 00:05:55;;;;;;;;;;;;;;;17.93;51.92;99836.44;2052453;28;19928;-48
2022/02/15 00:06:55;;;;;;;;;;;;;;;17.92;51.93;99834.72;2059093;28;19943;-49
2022/02/15 00:07:55;;;;;;;;;;;;;;;17.93;51.88;99841.91;2051100;28;19931;-47
2022/02/15 00:08:56;;;;;;;;;;;;;;;17.93;52.03;99841.00;2044397;28;19933;-48
2022/02/15 00:09:56;;;;;;;;;;;;;;;17.93;52.07;99841.00;2055945;28;20047;-47
2022/02/15 00:10:57;;;;;;;;;;;;;;;17.92;52.07;99844.75;2055923;28;19918;-50
2022/02/15 00:11:57;;;;;;;;;;;;;;;17.92;52.13;99840.16;2057193;28;20003;-47
2022/02/15 00:13:00;;;;;;;;;;;;;;;17.92;51.99;99837.44;2057721;28;19922;-53
2022/02/15 00:14:00;;;;;;;;;;;;;;;17.90;52.22;99844.91;2059945;28;20159;-50
2022/02/15 00:15:01;;;;;;;;;;;;;;;17.90;52.18;99841.31;2058632;28;19973;-47
2022/02/15 00:16:01;;;;;;;;;;;;;;;17.90;51.98;99853.06;2060299;28;19928;-48
2022/02/15 00:17:01;;;;;;;;;;;;;;;17.91;52.07;99849.38;2056484;28;20016;-50
2022/02/15 00:18:02;;;;;;;;;;;;;;;17.91;52.07;99853.97;2058916;28;20019;-47
2022/02/15 00:19:02;;;;;;;;;;;;;;;17.91;52.18;99849.38;2053846;28;20008;-47
2022/02/15 00:20:04;;;;;;;;;;;;;;;17.92;52.01;99852.94;2058364;28;20350;-47
2022/02/15 00:21:05;;;;;;;;;;;;;;;17.91;52.10;99854.81;2049506;28;19928;-48
2022/02/15 00:22:05;;;;;;;;;;;;;;;17.92;52.16;99861.97;2053043;28;19921;-48
2022/02/15 00:23:06;;;;;;;;;;;;;;;17.92;52.02;99861.13;2049246;28;20032;-46
2022/02/15 00:24:07;;;;;;;;;;;;;;;17.91;52.11;99857.53;2051920;28;20451;-48
2022/02/15 00:25:07;;;;;;;;;;;;;;;17.92;52.07;99853.78;2059651;28;19976;-47
2022/02/15 00:26:07;;;;;;;;;;;;;;;17.92;52.05;99856.53;2061005;28;19932;-47
2022/02/15 00:27:08;;;;;;;;;;;;;;;17.91;52.15;99857.53;2062368;28;19928;-49
2022/02/15 00:28:08;;;;;;;;;;;;;;;17.92;51.97;99855.66;2059135;28;19914;-49
2022/02/15 00:29:09;;;;;;;;;;;;;;;17.92;52.07;99861.97;2055884;28;19983;-48
2022/02/15 00:30:10;;;;;;;;;;;;;;;17.89;52.00;99848.66;2061134;28;19922;-47
2022/02/15 00:31:10;;;;;;;;;;;;;;;17.91;52.16;99849.38;2049544;28;19928;-47
2022/02/15 00:32:10;;;;;;;;;;;;;;;17.90;52.33;99847.63;2049898;28;19922;-49
2022/02/15 00:33:11;;;;;;;;;;;;;;;17.91;52.06;99853.97;2059692;28;20032;-48
2022/02/15 00:34:11;;;;;;;;;;;;;;;17.90;52.09;99853.06;2059073;28;20236;-48
2022/02/15 00:35:12;;;;;;;;;;;;;;;17.91;52.22;99854.81;2059986;28;19926;-47
2022/02/15 00:36:15;;;;;;;;;;;;;;;17.91;52.21;99854.81;2058167;28;19913;-49
2022/02/15 00:37:15;;;;;;;;;;;;;;;17.91;52.18;99848.50;2060973;28;20667;-47
2022/02/15 00:38:15;;;;;;;;;;;;;;;17.91;52.23;99857.53;2061011;28;19941;-48
2022/02/15 00:39:16;;;;;;;;;;;;;;;17.91;52.26;99848.50;2054684;28;19928;-48
2022/02/15 00:40:17;;;;;;;;;;;;;;;17.90;51.99;99853.06;2055271;28;20008;-48
2022/02/15 00:41:17;;;;;;;;;;;;;;;17.90;52.24;99847.63;2053064;28;19924;-48
2022/02/15 00:42:17;;;;;;;;;;;;;;;17.89;52.21;99854.09;2056285;28;20355;-46
2022/02/15 00:43:18;;;;;;;;;;;;;;;17.90;52.31;99858.53;2057090;28;19921;-50
2022/02/15 00:44:19;;;;;;;;;;;;;;;17.89;52.25;99855.97;2046571;28;20431;-48
2022/02/15 00:45:19;;;;;;;;;;;;;;;17.90;52.17;99857.69;2044461;28;19978;-49
2022/02/15 00:46:20;;;;;;;;;;;;;;;17.90;52.31;99857.69;2060102;28;20009;-46
2022/02/15 00:47:20;;;;;;;;;;;;;;;17.89;52.19;99856.81;2058368;28;19948;-48
2022/02/15 00:48:20;;;;;;;;;;;;;;;17.89;52.29;99854.09;2058031;28;19922;-47
2022/02/15 00:49:22;;;;;;;;;;;;;;;17.90;52.16;99854.94;2052719;28;19926;-50
2022/02/15 00:50:22;;;;;;;;;;;;;;;17.87;52.19;99853.38;2055554;28;19925;-48
2022/02/15 00:51:22;;;;;;;;;;;;;;;17.89;52.05;99854.09;2057475;28;20661;-48
2022/02/15 00:52:23;;;;;;;;;;;;;;;17.89;52.41;99862.28;2054479;28;19926;-48
2022/02/15 00:53:23;;;;;;;;;;;;;;;17.89;52.21;99861.44;2056111;28;20368;-47
2022/02/15 00:54:24;;;;;;;;;;;;;;;17.88;52.45;99854.22;2059671;28;20008;-48
2022/02/15 00:55:24;;;;;;;;;;;;;;;17.88;52.38;99855.09;2057947;28;20365;-48
2022/02/15 00:56:24;;;;;;;;;;;;;;;17.87;52.37;99857.97;2060327;28;19933;-47
2022/02/15 00:57:25;;;;;;;;;;;;;;;17.87;52.37;99855.25;2045976;28;20522;-46
2022/02/15 00:58:25;;;;;;;;;;;;;;;17.87;52.47;99864.28;2046771;28;19925;-49
2022/02/15 00:59:26;;;;;;;;;;;;;;;17.86;52.46;99862.59;2059034;28;19922;-47
2022/02/15 01:00:26;;;;;;;;;;;;;;;17.86;52.52;99853.53;2058144;28;20012;-48
2022/02/15 01:01:26;;;;;;;;;;;;;;;17.85;52.33;99855.38;2059163;28;19968;-47
2022/02/15 01:02:27;;;;;;;;;;;;;;;17.85;52.53;99854.53;2060425;28;19914;-47
2022/02/15 01:03:27;;;;;;;;;;;;;;;17.84;52.38;99859.13;2057986;28;20534;-47
2022/02/15 01:04:27;;;;;;;;;;;;;;;17.83;52.49;99856.53;2059139;28;19921;-47
2022/02/15 01:05:28;;;;;;;;;;;;;;;17.83;52.55;99856.53;2057672;28;20016;-47
2022/02/15 01:06:28;;;;;;;;;;;;;;;17.81;52.42;99859.44;2058360;28;19971;-47
2022/02/15 01:07:29;;;;;;;;;;;;;;;17.81;52.53;99859.44;2055143;28;19914;-47
2022/02/15 01:08:29;;;;;;;;;;;;;;;17.82;52.35;99860.28;2057122;28;19926;-49
2022/02/15 01:09:30;;;;;;;;;;;;;;;17.80;52.74;99857.72;2057086;28;19924;-48
2022/02/15 01:10:31;;;;;;;;;;;;;;;17.79;52.46;99858.69;2057782;28;20214;-48
2022/02/15 01:11:32;;;;;;;;;;;;;;;17.80;52.71;99857.72;2056738;28;19921;-47
2022/02/15 01:12:32;;;;;;;;;;;;;;;17.79;52.75;99858.69;2059714;28;20430;-47
2022/02/15 01:13:32;;;;;;;;;;;;;;;17.80;52.57;99868.59;2058344;28;19932;-48
2022/02/15 01:14:33;;;;;;;;;;;;;;;17.78;52.62;99859.69;2059001;28;20219;-47
2022/02/15 01:15:34;;;;;;;;;;;;;;;17.79;52.74;99858.69;2056768;28;19930;-50
2022/02/15 01:16:34;;;;;;;;;;;;;;;17.78;52.69;99865.13;2060715;28;20123;-48
2022/02/15 01:17:34;;;;;;;;;;;;;;;17.78;52.63;99866.03;2054970;28;20024;-47
2022/02/15 01:18:35;;;;;;;;;;;;;;;17.79;52.66;99866.88;2056255;28;19922;-48
2022/02/15 01:19:35;;;;;;;;;;;;;;;17.78;52.70;99865.13;2054924;28;19971;-47
2022/02/15 01:20:36;;;;;;;;;;;;;;;17.78;52.63;99866.03;2057464;28;20463;-47
2022/02/15 01:21:37;;;;;;;;;;;;;;;17.79;52.67;99866.88;2058764;28;19967;-45
2022/02/15 01:22:37;;;;;;;;;;;;;;;17.80;52.85;99868.59;2052472;28;20362;-47
2022/02/15 01:23:37;;;;;;;;;;;;;;;17.79;52.63;99867.72;2049084;28;19980;-48
2022/02/15 01:24:37;;;;;;;;;;;;;;;17.79;52.69;99866.88;2058669;28;19914;-47
2022/02/15 01:25:38;;;;;;;;;;;;;;;17.79;52.66;99866.88;2057815;28;20436;-48
2022/02/15 01:26:38;;;;;;;;;;;;;;;17.79;52.58;99878.63;2057632;28;19928;-47
2022/02/15 01:27:38;;;;;;;;;;;;;;;17.78;52.62;99871.47;2054429;28;19925;-47
2022/02/15 01:28:39;;;;;;;;;;;;;;;17.79;52.52;99872.31;2058778;28;20428;-48
2022/02/15 01:29:39;;;;;;;;;;;;;;;17.78;52.72;99870.59;2059886;28;19928;-47
2022/02/15 01:30:39;;;;;;;;;;;;;;;17.78;52.62;99876.94;2056777;28;20335;-49
2022/02/15 01:31:40;;;;;;;;;;;;;;;17.78;52.56;99876.03;2059202;28;19921;-48
2022/02/15 01:32:40;;;;;;;;;;;;;;;17.78;52.78;99876.03;2058813;28;20325;-47
2022/02/15 01:33:40;;;;;;;;;;;;;;;17.78;52.86;99871.47;2057782;28;20164;-47
2022/02/15 01:34:41;;;;;;;;;;;;;;;17.77;52.59;99869.72;2063141;28;19921;-48
2022/02/15 01:35:41;;;;;;;;;;;;;;;17.78;52.48;99876.03;2058365;28;19974;-48
2022/02/15 01:36:41;;;;;;;;;;;;;;;17.77;52.52;99875.19;2059163;28;19932;-48
2022/02/15 01:37:42;;;;;;;;;;;;;;;17.77;52.79;99874.34;2058536;28;20038;-48
2022/02/15 01:38:42;;;;;;;;;;;;;;;17.77;52.70;99882.50;2060094;28;19928;-47
2022/02/15 01:39:42;;;;;;;;;;;;;;;17.76;52.71;99880.78;2060812;28;19922;-48
2022/02/15 01:40:43;;;;;;;;;;;;;;;17.76;52.70;99875.31;2059828;28;19917;-48
2022/02/15 01:41:43;;;;;;;;;;;;;;;17.75;52.71;99882.66;2060358;28;19932;-47
2022/02/15 01:42:44;;;;;;;;;;;;;;;17.74;52.98;99882.81;2056470;28;20230;-48
2022/02/15 01:43:46;;;;;;;;;;;;;;;17.74;52.71;99885.53;2055832;28;20416;-47
2022/02/15 01:44:47;;;;;;;;;;;;;;;17.72;52.72;99882.94;2058583;28;19921;-48
2022/02/15 01:45:47;;;;;;;;;;;;;;;17.74;52.76;99891.00;2057446;28;19936;-47
2022/02/15 01:46:48;;;;;;;;;;;;;;;17.72;52.87;99895.72;2054500;28;19921;-50
2022/02/15 01:47:49;;;;;;;;;;;;;;;17.72;52.90;99898.44;2056354;28;19992;-47
2022/02/15 01:48:49;;;;;;;;;;;;;;;17.71;53.10;99891.25;2057242;28;19979;-48
2022/02/15 01:49:50;;;;;;;;;;;;;;;17.72;53.06;99893.00;2058169;28;19929;-47
2022/02/15 01:50:50;;;;;;;;;;;;;;;17.71;52.90;99885.81;2059785;28;19921;-47
2022/02/15 01:51:50;;;;;;;;;;;;;;;17.71;52.87;99885.81;2060078;28;19921;-48
2022/02/15 01:52:51;;;;;;;;;;;;;;;17.70;53.04;99895.84;2059176;28;20082;-49
2022/02/15 01:53:51;;;;;;;;;;;;;;;17.70;52.85;99887.69;2049760;28;19933;-49
2022/02/15 01:54:56;;;;;;;;;;;;;;;17.71;52.95;99891.25;2050566;28;20315;-48
2022/02/15 01:55:57;;;;;;;;;;;;;;;17.71;53.18;99899.44;2055008;28;19929;-48
2022/02/15 01:56:57;;;;;;;;;;;;;;;17.71;53.09;99899.44;2058636;28;20309;-48
2022/02/15 01:57:57;;;;;;;;;;;;;;;17.70;52.97;99895.00;2050307;28;19961;-47
2022/02/15 01:58:58;;;;;;;;;;;;;;;17.70;52.91;99897.72;2049676;28;19914;-47
2022/02/15 01:59:58;;;;;;;;;;;;;;;17.70;52.99;99900.47;2056995;28;19921;-66
2022/02/15 02:00:58;;;;;;;;;;;;;;;17.71;52.94;99902.16;2055701;28;20566;-48
2022/02/15 02:01:59;;;;;;;;;;;;;;;17.70;52.78;99895.00;2058350;28;19921;-47
2022/02/15 02:02:59;;;;;;;;;;;;;;;17.70;52.88;99895.00;2055601;28;20383;-50
2022/02/15 02:04:00;;;;;;;;;;;;;;;17.70;52.77;99890.41;2055286;28;19913;-45
2022/02/15 02:06:19;;;;;;;;;;;;;;;17.70;52.83;99897.72;2056519;28;19913;-48
2022/02/15 02:07:19;;;;;;;;;;;;;;;17.70;52.97;99903.19;2059131;28;19921;-47
2022/02/15 02:08:21;;;;;;;;;;;;;;;17.69;52.94;99899.59;2060346;28;19917;-48
2022/02/15 02:09:21;;;;;;;;;;;;;;;17.69;52.92;99898.75;2055615;28;19976;-47
2022/02/15 02:10:22;;;;;;;;;;;;;;;17.69;52.79;99904.19;2058381;28;20008;-48
2022/02/15 02:11:22;;;;;;;;;;;;;;;17.68;52.90;99897.00;2059425;28;19910;-48
2022/02/15 02:12:23;;;;;;;;;;;;;;;17.67;52.66;99912.50;2058193;28;19925;-47
2022/02/15 02:13:23;;;;;;;;;;;;;;;17.68;53.02;99902.47;2058038;28;19921;-48
2022/02/15 02:14:24;;;;;;;;;;;;;;;17.68;52.77;99913.38;2057769;28;19925;-48
2022/02/15 02:15:25;;;;;;;;;;;;;;;17.67;52.85;99911.66;2055017;28;19921;-47
2022/02/15 02:16:31;;;;;;;;;;;;;;;17.68;52.78;99918.81;2053814;28;19925;-49
2022/02/15 02:17:32;;;;;;;;;;;;;;;17.66;53.00;99909.91;2057475;28;20089;-47
2022/02/15 02:18:32;;;;;;;;;;;;;;;17.66;52.97;99920.81;2056938;28;20192;-47
2022/02/15 02:19:33;;;;;;;;;;;;;;;17.67;52.91;99928.00;2057133;28;19922;-51
2022/02/15 02:20:33;;;;;;;;;;;;;;;17.65;52.77;99919.13;2058945;28;20503;-47
2022/02/15 02:21:37;;;;;;;;;;;;;;;17.66;52.91;99916.22;2058780;28;19968;-50
2022/02/15 02:22:38;;;;;;;;;;;;;;;17.66;52.89;99923.56;2058608;28;19968;-49
2022/02/15 02:23:39;;;;;;;;;;;;;;;17.66;52.96;99921.69;2047707;28;19926;-47
2022/02/15 02:24:39;;;;;;;;;;;;;;;17.66;52.84;99920.81;2056625;28;20000;-48
2022/02/15 02:25:40;;;;;;;;;;;;;;;17.66;52.86;99923.56;2055355;28;19921;-48
2022/02/15 02:26:40;;;;;;;;;;;;;;;17.64;52.93;99925.56;2058390;28;19967;-48
2022/02/15 02:27:41;;;;;;;;;;;;;;;17.65;52.90;99930.03;2059570;28;19921;-47
2022/02/15 02:28:42;;;;;;;;;;;;;;;17.64;53.17;99928.28;2046691;28;19960;-47
2022/02/15 02:29:44;;;;;;;;;;;;;;;17.63;53.03;99926.56;2049461;28;20028;-49
2022/02/15 02:30:44;;;;;;;;;;;;;;;17.62;53.03;99927.59;2055641;28;19917;-48
2022/02/15 02:31:45;;;;;;;;;;;;;;;17.61;52.88;99929.44;2057923;28;19985;-48
2022/02/15 02:32:45;;;;;;;;;;;;;;;17.61;53.04;99931.31;2056621;28;19967;-48
2022/02/15 02:33:45;;;;;;;;;;;;;;;17.62;53.00;99924.88;2055436;28;19929;-49
2022/02/15 02:34:46;;;;;;;;;;;;;;;17.59;53.18;99931.47;2057646;28;19971;-47
2022/02/15 02:35:48;;;;;;;;;;;;;;;17.59;53.03;99931.47;2057697;28;19979;-47
2022/02/15 02:36:49;;;;;;;;;;;;;;;17.59;52.97;99926.00;2057035;28;19940;-48
2022/02/15 02:37:50;;;;;;;;;;;;;;;17.58;53.05;99924.28;2057527;28;19921;-48
2022/02/15 02:38:50;;;;;;;;;;;;;;;17.57;53.03;99923.41;2058122;28;20173;-47
2022/02/15 02:39:52;;;;;;;;;;;;;;;17.57;53.09;99930.75;2054488;28;19921;-49
2022/02/15 02:40:52;;;;;;;;;;;;;;;17.56;53.35;99935.34;2059823;28;20400;-48
2022/02/15 02:41:52;;;;;;;;;;;;;;;17.57;53.11;99928.88;2054454;28;19920;-47
2022/02/15 02:42:53;;;;;;;;;;;;;;;17.56;53.27;99929.88;2058292;28;19956;-47
2022/02/15 02:43:53;;;;;;;;;;;;;;;17.56;53.27;99931.72;2057194;28;19919;-48
2022/02/15 02:44:55;;;;;;;;;;;;;;;17.57;53.24;99930.75;2049563;28;19918;-47
2022/02/15 02:45:55;;;;;;;;;;;;;;;17.57;53.17;99931.59;2042665;28;20584;-47
2022/02/15 02:46:55;;;;;;;;;;;;;;;17.57;53.23;99931.59;2049549;28;19922;-48
2022/02/15 02:47:56;;;;;;;;;;;;;;;17.57;53.14;99931.59;2052425;28;19925;-48
2022/02/15 02:48:56;;;;;;;;;;;;;;;17.56;53.18;99932.63;2056734;28;20045;-48
2022/02/15 02:49:56;;;;;;;;;;;;;;;17.57;53.25;99933.47;2056341;28;19952;-47
2022/02/15 02:50:58;;;;;;;;;;;;;;;17.56;53.06;99932.63;2050421;28;19914;-47
2022/02/15 02:51:59;;;;;;;;;;;;;;;17.56;53.00;99935.34;2044272;28;19928;-48
2022/02/15 02:52:59;;;;;;;;;;;;;;;17.56;53.25;99935.34;2059125;28;19929;-48
2022/02/15 02:53:59;;;;;;;;;;;;;;;17.56;53.30;99931.72;2057624;28;19921;-47
2022/02/15 02:55:00;;;;;;;;;;;;;;;17.56;53.24;99937.19;2057079;28;19944;-48
2022/02/15 02:56:00;;;;;;;;;;;;;;;17.55;53.27;99930.88;2057368;28;19995;-48
2022/02/15 02:57:01;;;;;;;;;;;;;;;17.55;53.16;99933.59;2055551;28;19960;-47
2022/02/15 02:58:02;;;;;;;;;;;;;;;17.55;53.30;99930.88;2051458;28;19944;-49
2022/02/15 02:59:02;;;;;;;;;;;;;;;17.54;53.17;99931.91;2049239;28;19914;-47
2022/02/15 03:00:04;;;;;;;;;;;;;;;17.55;53.00;99935.47;2048087;28;19926;-48
2022/02/15 03:01:05;;;;;;;;;;;;;;;17.55;53.25;99944.50;2056799;28;19925;-49
2022/02/15 03:02:05;;;;;;;;;;;;;;;17.55;53.07;99943.66;2059555;28;20020;-47
2022/02/15 03:03:07;;;;;;;;;;;;;;;17.54;53.09;99940.06;2058067;28;20226;-46
2022/02/15 03:04:07;;;;;;;;;;;;;;;17.54;53.16;99942.78;2058502;28;19975;-50
2022/02/15 03:05:08;;;;;;;;;;;;;;;17.54;53.22;99945.53;2060457;28;20016;-47
2022/02/15 03:06:08;;;;;;;;;;;;;;;17.53;53.35;99945.66;2058271;28;20339;-48
2022/02/15 03:07:09;;;;;;;;;;;;;;;17.51;53.28;99939.47;2050665;28;19953;-47
2022/02/15 03:08:09;;;;;;;;;;;;;;;17.51;53.01;99939.47;2050271;28;19914;-48
2022/02/15 03:09:10;;;;;;;;;;;;;;;17.49;53.39;99938.75;2051055;28;19925;-50
2022/02/15 03:10:10;;;;;;;;;;;;;;;17.48;53.25;99940.63;2051318;28;19931;-47
2022/02/15 03:11:10;;;;;;;;;;;;;;;17.49;53.39;99947.81;2060353;28;20844;-50
2022/02/15 03:12:12;;;;;;;;;;;;;;;17.49;53.37;99949.66;2059422;28;19920;-47
2022/02/15 03:13:12;;;;;;;;;;;;;;;17.48;53.23;99950.66;2049654;28;19993;-49
2022/02/15 03:14:12;;;;;;;;;;;;;;;17.47;53.20;99949.81;2050332;28;19926;-47
2022/02/15 03:15:13;;;;;;;;;;;;;;;17.47;53.25;99949.81;2058432;28;19917;-49
2022/02/15 03:16:13;;;;;;;;;;;;;;;17.48;53.24;99956.13;2059401;28;19932;-48
2022/02/15 03:17:14;;;;;;;;;;;;;;;17.46;53.22;99961.69;2062855;28;19914;-47
2022/02/15 03:18:14;;;;;;;;;;;;;;;17.48;53.25;99958.84;2060817;28;19928;-48
2022/02/15 03:19:15;;;;;;;;;;;;;;;17.48;53.38;99956.13;2057991;28;19932;-49
2022/02/15 03:20:15;;;;;;;;;;;;;;;17.47;53.16;99955.28;2058848;28;19932;-48
2022/02/15 03:21:15;;;;;;;;;;;;;;;17.47;53.40;99960.72;2048921;28;20375;-48
2022/02/15 03:22:16;;;;;;;;;;;;;;;17.47;53.28;99959.88;2051838;28;20147;-48
2022/02/15 03:23:18;;;;;;;;;;;;;;;17.49;53.05;99963.28;2051106;28;19921;-47
2022/02/15 03:24:18;;;;;;;;;;;;;;;17.47;53.25;99958.00;2047363;28;19921;-49
2022/02/15 03:25:19;;;;;;;;;;;;;;;17.48;53.13;99961.56;2053823;28;19928;-48
2022/02/15 03:26:19;;;;;;;;;;;;;;;17.47;53.13;99960.72;2050245;28;19931;-47
2022/02/15 03:27:20;;;;;;;;;;;;;;;17.48;53.16;99964.31;2058890;28;19914;-48
2022/02/15 03:28:20;;;;;;;;;;;;;;;17.46;53.26;99964.44;2060610;28;19921;-47
2022/02/15 03:29:20;;;;;;;;;;;;;;;17.47;53.15;99966.16;2062944;28;19929;-50
2022/02/15 03:30:20;;;;;;;;;;;;;;;17.47;53.18;99959.88;2061124;28;20179;-48
2022/02/15 03:31:22;;;;;;;;;;;;;;;17.47;53.34;99966.16;2059074;28;20343;-47
2022/02/15 03:32:22;;;;;;;;;;;;;;;17.46;53.30;99961.69;2057309;28;20076;-48
2022/02/15 03:33:23;;;;;;;;;;;;;;;17.46;53.22;99975.34;2061313;28;20012;-49
2022/02/15 03:34:23;;;;;;;;;;;;;;;17.45;53.28;99973.63;2059039;28;19926;-48
2022/02/15 03:35:23;;;;;;;;;;;;;;;17.46;53.22;99979.94;2056654;28;19992;-47
2022/02/15 03:36:24;;;;;;;;;;;;;;;17.46;53.21;99980.78;2060349;28;20143;-48
2022/02/15 03:37:24;;;;;;;;;;;;;;;17.45;53.25;99980.94;2057810;28;19927;-47
2022/02/15 03:38:25;;;;;;;;;;;;;;;17.45;53.31;99979.06;2059323;28;19921;-48
2022/02/15 03:39:25;;;;;;;;;;;;;;;17.45;53.33;99980.94;2058338;28;19921;-47
2022/02/15 03:43:05;;;;;;;;;;;;;;;17.44;53.16;99977.38;2057936;28;20477;-49
2022/02/15 03:43:08;;;;;;;;;;;;;;;17.44;53.35;99980.09;2057980;28;19917;-47
2022/02/15 03:44:08;;;;;;;;;;;;;;;17.42;53.42;99984.81;2059754;28;19921;-47
2022/02/15 03:45:09;;;;;;;;;;;;;;;17.42;53.39;99990.25;2055808;28;19952;-48
2022/02/15 03:46:09;;;;;;;;;;;;;;;17.41;53.55;99983.06;2059992;28;19922;-48
2022/02/15 03:47:10;;;;;;;;;;;;;;;17.41;53.43;99988.53;2052456;28;19988;-47
2022/02/15 03:48:10;;;;;;;;;;;;;;;17.39;53.20;99990.53;2053406;28;20021;-48
2022/02/15 03:49:11;;;;;;;;;;;;;;;17.40;53.35;99997.72;2060620;28;20593;-48
2022/02/15 03:50:12;;;;;;;;;;;;;;;17.39;53.42;99998.69;2056993;28;20305;-45
2022/02/15 03:51:13;;;;;;;;;;;;;;;17.40;53.47;100002.31;2059709;28;19921;-47
2022/02/15 03:52:14;;;;;;;;;;;;;;;17.39;53.47;100000.56;2058437;28;20305;-47
2022/02/15 03:53:15;;;;;;;;;;;;;;;17.38;53.33;99999.72;2055598;28;20198;-47
2022/02/15 03:54:16;;;;;;;;;;;;;;;17.37;53.68;99998.00;2061265;28;19967;-47
2022/02/15 03:55:16;;;;;;;;;;;;;;;17.38;53.55;99997.00;2059949;28;20323;-48
2022/02/15 03:56:17;;;;;;;;;;;;;;;17.37;53.58;99998.00;2057582;28;19974;-48
2022/02/15 03:57:17;;;;;;;;;;;;;;;17.37;53.41;100006.19;2060411;28;20004;-48
2022/02/15 03:58:17;;;;;;;;;;;;;;;17.38;53.28;100005.16;2060533;28;19983;-47
2022/02/15 03:59:19;;;;;;;;;;;;;;;17.39;53.40;100003.28;2058654;28;19921;-47
2022/02/15 04:00:20;;;;;;;;;;;;;;;17.39;53.65;100006.03;2057050;28;20774;-47
2022/02/15 04:01:20;;;;;;;;;;;;;;;17.40;53.22;100008.63;2056489;28;20016;-47
2022/02/15 04:02:20;;;;;;;;;;;;;;;17.41;53.27;100010.31;2060458;28;19932;-47
2022/02/15 04:03:21;;;;;;;;;;;;;;;17.41;53.46;100010.31;2055948;28;19914;-48
2022/02/15 04:04:21;;;;;;;;;;;;;;;17.42;53.50;100012.06;2054400;28;19913;-47
2022/02/15 04:05:22;;;;;;;;;;;;;;;17.43;53.12;100008.31;2059804;28;19921;-49
2022/02/15 04:06:23;;;;;;;;;;;;;;;17.43;53.25;100016.50;2060047;28;19936;-47
2022/02/15 04:07:23;;;;;;;;;;;;;;;17.43;53.20;100012.91;2053718;28;19921;-48
2022/02/15 04:08:23;;;;;;;;;;;;;;;17.43;53.24;100011.03;2055819;28;20287;-47
2022/02/15 04:09:24;;;;;;;;;;;;;;;17.44;52.95;100020.06;2058067;28;19921;-50
2022/02/15 04:10:24;;;;;;;;;;;;;;;17.44;53.17;100026.41;2058666;28;19921;-49
2022/02/15 04:11:25;;;;;;;;;;;;;;;17.44;53.18;100025.53;2058153;28;19932;-48
2022/02/15 04:12:25;;;;;;;;;;;;;;;17.44;53.13;100026.41;2055159;28;19995;-51
2022/02/15 04:13:25;;;;;;;;;;;;;;;17.44;53.06;100031.88;2058629;28;19922;-47
2022/02/15 04:14:25;;;;;;;;;;;;;;;17.44;53.22;100031.88;2058966;28;20359;-48
2022/02/15 04:15:26;;;;;;;;;;;;;;;17.43;53.24;100024.66;2062917;28;19965;-49
2022/02/15 04:16:26;;;;;;;;;;;;;;;17.42;53.36;100033.88;2057323;28;19921;-48
2022/02/15 04:17:27;;;;;;;;;;;;;;;17.42;53.21;100028.41;2058399;28;20668;-48
2022/02/15 04:18:27;;;;;;;;;;;;;;;17.42;53.45;100032.97;2060361;28;19982;-47
2022/02/15 04:19:27;;;;;;;;;;;;;;;17.42;53.39;100042.03;2059915;28;19921;-48
2022/02/15 04:20:27;;;;;;;;;;;;;;;17.42;53.27;100043.88;2058580;28;19921;-47
2022/02/15 04:21:28;;;;;;;;;;;;;;;17.42;53.30;100044.75;2061121;28;19925;-47
2022/02/15 04:22:28;;;;;;;;;;;;;;;17.41;53.28;100044.88;2058924;28;19967;-47
2022/02/15 04:23:29;;;;;;;;;;;;;;;17.39;53.29;100044.16;2060650;28;19969;-48
2022/02/15 04:24:29;;;;;;;;;;;;;;;17.40;53.11;100040.47;2050215;28;20013;-48
2022/02/15 04:25:29;;;;;;;;;;;;;;;17.40;53.36;100049.50;2051311;28;20450;-47
2022/02/15 04:26:29;;;;;;;;;;;;;;;17.39;53.27;100050.47;2061844;28;19925;-47
2022/02/15 04:27:30;;;;;;;;;;;;;;;17.37;53.40;100047.06;2058985;28;19921;-47
2022/02/15 04:28:30;;;;;;;;;;;;;;;17.36;53.58;100048.03;2053973;28;19920;-48
2022/02/15 04:29:31;;;;;;;;;;;;;;;17.36;53.15;100048.03;2059700;28;19936;-47
2022/02/15 04:30:31;;;;;;;;;;;;;;;17.35;53.42;100044.44;2055970;28;20183;-49
2022/02/15 04:31:31;;;;;;;;;;;;;;;17.35;53.25;100049.91;2060810;28;19921;-47
2022/02/15 04:32:32;;;;;;;;;;;;;;;17.33;53.33;100051.91;2056042;28;19921;-48
2022/02/15 04:33:32;;;;;;;;;;;;;;;17.34;53.65;100053.63;2059118;28;20216;-47
2022/02/15 04:34:32;;;;;;;;;;;;;;;17.34;53.35;100052.75;2058257;28;19968;-47
2022/02/15 04:35:33;;;;;;;;;;;;;;;17.33;53.32;100051.03;2058891;28;19988;-48
2022/02/15 04:36:33;;;;;;;;;;;;;;;17.33;53.29;100062.81;2045256;28;19952;-47
2022/02/15 04:37:33;;;;;;;;;;;;;;;17.34;53.22;100063.66;2049472;28;19925;-51
2022/02/15 04:38:34;;;;;;;;;;;;;;;17.34;53.37;100063.66;2056494;28;20117;-48
2022/02/15 04:39:34;;;;;;;;;;;;;;;17.34;53.26;100067.25;2059856;28;19921;-47
2022/02/15 04:40:34;;;;;;;;;;;;;;;17.33;53.38;100073.69;2057892;28;19933;-47
2022/02/15 04:41:35;;;;;;;;;;;;;;;17.34;53.26;100074.56;2055260;28;19929;-46
2022/02/15 04:42:35;;;;;;;;;;;;;;;17.35;53.41;100073.56;2059286;28;20040;-48
2022/02/15 04:43:35;;;;;;;;;;;;;;;17.33;53.43;100070.97;2058022;28;19952;-47
2022/02/15 04:44:36;;;;;;;;;;;;;;;17.33;53.63;100073.69;2054185;28;19921;-48
2022/02/15 04:45:36;;;;;;;;;;;;;;;17.34;53.58;100080.00;2048830;28;19928;-49
2022/02/15 04:46:36;;;;;;;;;;;;;;;17.34;53.46;100080.00;2045202;28;19922;-48
2022/02/15 04:47:37;;;;;;;;;;;;;;;17.33;53.38;100076.41;2045331;28;19997;-49
2022/02/15 04:48:37;;;;;;;;;;;;;;;17.33;53.60;100083.75;2048285;28;20770;-47
2022/02/15 04:49:38;;;;;;;;;;;;;;;17.33;53.39;100089.19;2043550;28;19929;-49
2022/02/15 04:50:38;;;;;;;;;;;;;;;17.32;53.47;100091.06;2042297;28;19985;-48
2022/02/15 04:51:39;;;;;;;;;;;;;;;17.31;53.48;100088.47;2041647;28;20790;-47
2022/02/15 04:52:39;;;;;;;;;;;;;;;17.31;53.35;100096.63;2044361;28;19922;-48
2022/02/15 04:53:39;;;;;;;;;;;;;;;17.31;53.56;100093.91;2044290;28;20273;-48
2022/02/15 04:54:40;;;;;;;;;;;;;;;17.33;53.54;100100.09;2039277;28;19915;-47
2022/02/15 04:55:41;;;;;;;;;;;;;;;17.31;53.27;100099.34;2037009;28;19930;-47
2022/02/15 04:56:41;;;;;;;;;;;;;;;17.31;53.43;100102.09;2041179;28;19918;-47
2022/02/15 04:57:41;;;;;;;;;;;;;;;17.30;53.22;100101.22;2037495;28;19952;-49
2022/02/15 04:58:42;;;;;;;;;;;;;;;17.30;53.41;100101.22;2042273;28;19945;-49
2022/02/15 04:59:42;;;;;;;;;;;;;;;17.30;53.40;100103.94;2042738;28;20000;-48
2022/02/15 05:00:42;;;;;;;;;;;;;;;17.30;53.55;100116.72;2037288;28;19926;-48
2022/02/15 05:01:43;;;;;;;;;;;;;;;17.30;53.47;100122.16;2044469;28;19928;-47
2022/02/15 05:02:43;;;;;;;;;;;;;;;17.29;53.51;100121.28;2044611;28;19929;-47
2022/02/15 05:03:44;;;;;;;;;;;;;;;17.29;53.50;100120.41;2047587;28;19921;-48
2022/02/15 05:04:50;;;;;;;;;;;;;;;17.29;53.42;100126.72;2044544;28;19930;-48
2022/02/15 05:05:51;;;;;;;;;;;;;;;17.28;53.54;100119.56;2042668;28;19932;-49
2022/02/15 05:06:51;;;;;;;;;;;;;;;17.28;53.51;100124.16;2041250;28;19957;-49
2022/02/15 05:07:51;;;;;;;;;;;;;;;17.27;53.48;100126.03;2040697;28;19926;-47
2022/02/15 05:08:51;;;;;;;;;;;;;;;17.26;53.56;100126.16;2043041;28;20545;-49
2022/02/15 05:09:52;;;;;;;;;;;;;;;17.26;53.66;100129.72;2040224;28;20382;-48
2022/02/15 05:10:52;;;;;;;;;;;;;;;17.26;53.64;100132.47;2044500;28;19920;-48
2022/02/15 05:11:52;;;;;;;;;;;;;;;17.25;53.76;100135.34;2045072;28;20407;-48
2022/02/15 05:12:53;;;;;;;;;;;;;;;17.25;53.75;100132.63;2041992;28;19918;-47
2022/02/15 05:13:54;;;;;;;;;;;;;;;17.24;53.79;100122.69;2037021;28;19929;-49
2022/02/15 05:14:54;;;;;;;;;;;;;;;17.24;53.65;100133.59;2041544;28;19929;-47
2022/02/15 05:15:54;;;;;;;;;;;;;;;17.24;53.78;100139.03;2044202;28;19922;-47
2022/02/15 05:16:55;;;;;;;;;;;;;;;17.23;53.88;100137.34;2048309;28;19921;-47